Little Valley, Nevada Weather observations

Data are for 10 minute period ending at time listed.
 Day   Time    Ave.   Ave.  Ave.  Vector   Max.   Total    Solar   
  of    of     Air    Rel.  Wind   Wind    Wind  Precip.   Rad.    
Year   Day     Temp.  Hum.  Speed  Dir.    Gust                    
2014   (PST)    F      %     mph   deg.    mph     in.     W/m2    
------------------------------------------------------------------- 
 330    7:00   31.0    78    2.0   200      6.0   19.02       0  
 330    8:00   34.0    71    1.0   243      6.0   19.02      10  
 330    9:00   57.0    29    3.0   228     10.0   19.02     125  
 330   10:00   58.0    26    6.0   206     15.0   19.02     284  
 330   11:00   61.0    22    5.0   238     15.0   19.02     471  
 330   12:00   63.0    19    6.0   211     17.0   19.02     543  
 330   13:00   63.0    21    7.0   204     16.0   19.02     544  
 330   14:00   63.0    21    8.0   240     18.0   19.02     494  
 330   15:00   63.0    21    8.0   258     20.0   19.02     370  
 330   16:00   60.0    25    5.0   234     23.0   19.02     159  
 330   17:00   58.0    25    6.0   234     18.0   19.02      32  
 330   18:00   56.0    30    8.0   266     20.0   19.02       0  
 330   19:00   55.0    30    7.0   264     17.0   19.02       0  
 330   20:00   54.0    31    9.0   253     21.0   19.02       0  
 330   21:00   51.0    36    4.0   236     14.0   19.02       0  
 330   22:00   52.0    33    4.0   223     15.0   19.02       0  
 330   23:00  999.0   999  999.0   999    999.0   999.00     999  
 331    0:00   52.0    33    7.0   254     17.0   19.02       0  
 331    1:00   52.0    34    6.0   261     22.0   19.02       0  
 331    2:00   48.0    39    3.0   227     11.0   19.02       0  
 331    3:00   48.0    40    4.0   213     11.0   19.02       0  
 331    4:00   49.0    37    4.0   227     14.0   19.02       0  
 331    5:00   52.0    29    6.0   243     20.0   19.02       0  
 331    6:00   53.0    27    9.0   267     23.0   19.02       0  

Return to Little Valley, Nevada graphs page.


Western Regional Climate Center,wrcc@dri.edu